sensor_id;sensor_type;location;lat;lon;timestamp;P1;durP1;ratioP1;P2;durP2;ratioP2
49488;SDS011;35382;51.484;11.476;2022-11-15T00:00:14;17.08;;;11.40;;
49488;SDS011;35382;51.484;11.476;2022-11-15T00:02:14;17.33;;;10.68;;
49488;SDS011;35382;51.484;11.476;2022-11-15T00:04:13;14.82;;;9.10;;
49488;SDS011;35382;51.484;11.476;2022-11-15T00:06:12;14.48;;;8.75;;
49488;SDS011;35382;51.484;11.476;2022-11-15T00:08:13;13.68;;;9.23;;
49488;SDS011;35382;51.484;11.476;2022-11-15T00:10:12;14.40;;;9.40;;
49488;SDS011;35382;51.484;11.476;2022-11-15T00:12:12;14.18;;;8.75;;
49488;SDS011;35382;51.484;11.476;2022-11-15T00:14:11;16.15;;;9.60;;
49488;SDS011;35382;51.484;11.476;2022-11-15T00:16:11;15.35;;;10.10;;
49488;SDS011;35382;51.484;11.476;2022-11-15T00:18:14;13.68;;;9.50;;
49488;SDS011;35382;51.484;11.476;2022-11-15T00:20:14;16.20;;;9.88;;
49488;SDS011;35382;51.484;11.476;2022-11-15T00:22:13;14.93;;;9.52;;
49488;SDS011;35382;51.484;11.476;2022-11-15T00:24:13;15.05;;;9.75;;
49488;SDS011;35382;51.484;11.476;2022-11-15T00:26:14;17.13;;;9.98;;
49488;SDS011;35382;51.484;11.476;2022-11-15T00:28:14;17.52;;;10.30;;
49488;SDS011;35382;51.484;11.476;2022-11-15T00:30:14;17.17;;;11.27;;
49488;SDS011;35382;51.484;11.476;2022-11-15T00:32:17;17.42;;;10.85;;
49488;SDS011;35382;51.484;11.476;2022-11-15T00:34:16;21.15;;;11.88;;
49488;SDS011;35382;51.484;11.476;2022-11-15T00:36:16;18.35;;;11.07;;
49488;SDS011;35382;51.484;11.476;2022-11-15T00:38:16;18.17;;;11.45;;
49488;SDS011;35382;51.484;11.476;2022-11-15T00:40:15;16.80;;;11.18;;
49488;SDS011;35382;51.484;11.476;2022-11-15T00:42:15;20.98;;;11.07;;
49488;SDS011;35382;51.484;11.476;2022-11-15T00:44:15;19.17;;;12.30;;
49488;SDS011;35382;51.484;11.476;2022-11-15T00:46:15;17.33;;;10.48;;
49488;SDS011;35382;51.484;11.476;2022-11-15T00:48:14;17.92;;;10.05;;
49488;SDS011;35382;51.484;11.476;2022-11-15T00:50:14;16.55;;;10.80;;
49488;SDS011;35382;51.484;11.476;2022-11-15T00:52:14;15.70;;;9.95;;
49488;SDS011;35382;51.484;11.476;2022-11-15T00:54:13;17.85;;;10.27;;
49488;SDS011;35382;51.484;11.476;2022-11-15T00:56:13;17.67;;;10.82;;
49488;SDS011;35382;51.484;11.476;2022-11-15T00:58:12;20.02;;;11.63;;
49488;SDS011;35382;51.484;11.476;2022-11-15T01:00:12;19.23;;;12.07;;
49488;SDS011;35382;51.484;11.476;2022-11-15T01:02:11;18.83;;;11.45;;
49488;SDS011;35382;51.484;11.476;2022-11-15T01:04:11;18.05;;;11.02;;
49488;SDS011;35382;51.484;11.476;2022-11-15T01:06:11;19.20;;;11.43;;
49488;SDS011;35382;51.484;11.476;2022-11-15T01:08:14;18.90;;;10.55;;
49488;SDS011;35382;51.484;11.476;2022-11-15T01:10:14;17.23;;;11.18;;
49488;SDS011;35382;51.484;11.476;2022-11-15T01:12:14;19.30;;;11.48;;
49488;SDS011;35382;51.484;11.476;2022-11-15T01:14:13;15.82;;;9.88;;
49488;SDS011;35382;51.484;11.476;2022-11-15T01:16:14;17.75;;;10.65;;
49488;SDS011;35382;51.484;11.476;2022-11-15T01:18:18;15.68;;;10.13;;
49488;SDS011;35382;51.484;11.476;2022-11-15T01:20:18;18.67;;;11.27;;
49488;SDS011;35382;51.484;11.476;2022-11-15T01:22:18;18.55;;;9.68;;
49488;SDS011;35382;51.484;11.476;2022-11-15T01:24:17;17.65;;;11.07;;
49488;SDS011;35382;51.484;11.476;2022-11-15T01:26:17;18.05;;;10.57;;
49488;SDS011;35382;51.484;11.476;2022-11-15T01:28:17;17.17;;;11.25;;
49488;SDS011;35382;51.484;11.476;2022-11-15T01:30:16;16.33;;;10.43;;
49488;SDS011;35382;51.484;11.476;2022-11-15T01:32:16;16.83;;;10.00;;
49488;SDS011;35382;51.484;11.476;2022-11-15T01:34:15;14.98;;;9.95;;
49488;SDS011;35382;51.484;11.476;2022-11-15T01:36:19;18.25;;;10.75;;
49488;SDS011;35382;51.484;11.476;2022-11-15T01:38:23;24.02;;;12.43;;
49488;SDS011;35382;51.484;11.476;2022-11-15T01:40:22;19.05;;;12.00;;
49488;SDS011;35382;51.484;11.476;2022-11-15T01:42:22;19.83;;;11.95;;
49488;SDS011;35382;51.484;11.476;2022-11-15T01:46:34;23.55;;;11.95;;
49488;SDS011;35382;51.484;11.476;2022-11-15T01:48:35;20.50;;;11.50;;
49488;SDS011;35382;51.484;11.476;2022-11-15T01:50:35;17.50;;;10.70;;
49488;SDS011;35382;51.484;11.476;2022-11-15T01:52:35;23.58;;;12.38;;
49488;SDS011;35382;51.484;11.476;2022-11-15T01:54:36;18.60;;;11.10;;
49488;SDS011;35382;51.484;11.476;2022-11-15T01:56:37;22.50;;;12.60;;
49488;SDS011;35382;51.484;11.476;2022-11-15T01:58:52;20.52;;;12.25;;
49488;SDS011;35382;51.484;11.476;2022-11-15T02:00:54;20.60;;;12.02;;
49488;SDS011;35382;51.484;11.476;2022-11-15T02:02:54;21.40;;;12.48;;
49488;SDS011;35382;51.484;11.476;2022-11-15T02:04:53;21.27;;;12.38;;
49488;SDS011;35382;51.484;11.476;2022-11-15T02:06:53;18.75;;;11.57;;
49488;SDS011;35382;51.484;11.476;2022-11-15T02:08:53;19.25;;;11.48;;
49488;SDS011;35382;51.484;11.476;2022-11-15T02:10:53;19.60;;;11.82;;
49488;SDS011;35382;51.484;11.476;2022-11-15T02:12:53;17.42;;;10.88;;
49488;SDS011;35382;51.484;11.476;2022-11-15T02:14:55;20.92;;;11.60;;
49488;SDS011;35382;51.484;11.476;2022-11-15T02:28:29;20.15;;;10.63;;
49488;SDS011;35382;51.484;11.476;2022-11-15T02:31:11;17.50;;;10.07;;
49488;SDS011;35382;51.484;11.476;2022-11-15T02:33:26;17.88;;;10.23;;
49488;SDS011;35382;51.484;11.476;2022-11-15T02:35:37;21.93;;;11.67;;
49488;SDS011;35382;51.484;11.476;2022-11-15T02:40:13;22.58;;;11.40;;
49488;SDS011;35382;51.484;11.476;2022-11-15T02:42:28;16.15;;;10.15;;
49488;SDS011;35382;51.484;11.476;2022-11-15T02:44:50;16.85;;;9.52;;
49488;SDS011;35382;51.484;11.476;2022-11-15T02:46:52;15.93;;;9.98;;
49488;SDS011;35382;51.484;11.476;2022-11-15T02:49:14;18.17;;;9.43;;
49488;SDS011;35382;51.484;11.476;2022-11-15T02:51:14;14.95;;;9.52;;
49488;SDS011;35382;51.484;11.476;2022-11-15T02:53:16;14.02;;;8.85;;
49488;SDS011;35382;51.484;11.476;2022-11-15T02:55:26;15.80;;;9.80;;
49488;SDS011;35382;51.484;11.476;2022-11-15T03:00:08;15.30;;;8.73;;
49488;SDS011;35382;51.484;11.476;2022-11-15T03:04:38;16.25;;;9.35;;
49488;SDS011;35382;51.484;11.476;2022-11-15T03:11:11;14.80;;;9.00;;
49488;SDS011;35382;51.484;11.476;2022-11-15T03:13:21;15.32;;;9.27;;
49488;SDS011;35382;51.484;11.476;2022-11-15T03:15:36;15.60;;;9.50;;
49488;SDS011;35382;51.484;11.476;2022-11-15T03:17:45;15.68;;;8.48;;
49488;SDS011;35382;51.484;11.476;2022-11-15T03:19:51;16.90;;;8.85;;
49488;SDS011;35382;51.484;11.476;2022-11-15T03:21:54;14.80;;;8.25;;
49488;SDS011;35382;51.484;11.476;2022-11-15T03:23:55;13.70;;;8.73;;
49488;SDS011;35382;51.484;11.476;2022-11-15T03:25:57;15.05;;;9.15;;
49488;SDS011;35382;51.484;11.476;2022-11-15T03:27:58;16.02;;;8.95;;
49488;SDS011;35382;51.484;11.476;2022-11-15T03:30:04;16.63;;;9.43;;
49488;SDS011;35382;51.484;11.476;2022-11-15T03:32:08;18.13;;;9.55;;
49488;SDS011;35382;51.484;11.476;2022-11-15T03:34:15;14.05;;;9.23;;
49488;SDS011;35382;51.484;11.476;2022-11-15T03:36:37;17.25;;;9.40;;
49488;SDS011;35382;51.484;11.476;2022-11-15T03:38:36;15.95;;;9.05;;
49488;SDS011;35382;51.484;11.476;2022-11-15T03:40:38;17.73;;;9.07;;
49488;SDS011;35382;51.484;11.476;2022-11-15T03:44:54;14.43;;;8.25;;
49488;SDS011;35382;51.484;11.476;2022-11-15T03:47:07;13.80;;;8.50;;
49488;SDS011;35382;51.484;11.476;2022-11-15T03:49:12;16.05;;;8.90;;
49488;SDS011;35382;51.484;11.476;2022-11-15T03:51:15;14.52;;;8.65;;
49488;SDS011;35382;51.484;11.476;2022-11-15T03:53:15;14.23;;;8.73;;
49488;SDS011;35382;51.484;11.476;2022-11-15T03:55:17;15.15;;;9.02;;
49488;SDS011;35382;51.484;11.476;2022-11-15T03:57:18;15.70;;;8.57;;
49488;SDS011;35382;51.484;11.476;2022-11-15T03:59:17;15.82;;;8.70;;
49488;SDS011;35382;51.484;11.476;2022-11-15T04:01:17;15.73;;;8.68;;
49488;SDS011;35382;51.484;11.476;2022-11-15T04:03:16;14.23;;;8.60;;
49488;SDS011;35382;51.484;11.476;2022-11-15T04:05:16;16.20;;;9.48;;
49488;SDS011;35382;51.484;11.476;2022-11-15T04:07:15;15.02;;;8.70;;
49488;SDS011;35382;51.484;11.476;2022-11-15T04:09:15;15.45;;;9.40;;
49488;SDS011;35382;51.484;11.476;2022-11-15T04:11:15;13.02;;;8.07;;
49488;SDS011;35382;51.484;11.476;2022-11-15T04:13:15;15.32;;;8.77;;
49488;SDS011;35382;51.484;11.476;2022-11-15T04:15:18;15.68;;;9.13;;
49488;SDS011;35382;51.484;11.476;2022-11-15T04:17:19;17.33;;;9.40;;
49488;SDS011;35382;51.484;11.476;2022-11-15T04:19:18;17.42;;;9.55;;
49488;SDS011;35382;51.484;11.476;2022-11-15T04:21:37;17.42;;;8.73;;
49488;SDS011;35382;51.484;11.476;2022-11-15T04:23:55;14.63;;;8.55;;
49488;SDS011;35382;51.484;11.476;2022-11-15T04:26:10;19.08;;;9.65;;
49488;SDS011;35382;51.484;11.476;2022-11-15T04:28:11;15.27;;;8.95;;
49488;SDS011;35382;51.484;11.476;2022-11-15T04:30:11;16.25;;;8.63;;
49488;SDS011;35382;51.484;11.476;2022-11-15T04:32:10;15.68;;;9.05;;
49488;SDS011;35382;51.484;11.476;2022-11-15T04:34:10;13.75;;;8.10;;
49488;SDS011;35382;51.484;11.476;2022-11-15T04:36:10;13.25;;;7.95;;
49488;SDS011;35382;51.484;11.476;2022-11-15T04:38:28;14.80;;;7.68;;
49488;SDS011;35382;51.484;11.476;2022-11-15T04:40:27;13.38;;;7.47;;
49488;SDS011;35382;51.484;11.476;2022-11-15T04:42:27;13.02;;;8.05;;
49488;SDS011;35382;51.484;11.476;2022-11-15T04:44:26;13.80;;;7.72;;
49488;SDS011;35382;51.484;11.476;2022-11-15T04:46:26;13.25;;;8.02;;
49488;SDS011;35382;51.484;11.476;2022-11-15T04:48:26;17.58;;;8.60;;
49488;SDS011;35382;51.484;11.476;2022-11-15T04:50:25;14.13;;;8.77;;
49488;SDS011;35382;51.484;11.476;2022-11-15T04:52:25;14.07;;;8.18;;
49488;SDS011;35382;51.484;11.476;2022-11-15T04:54:25;14.30;;;8.38;;
49488;SDS011;35382;51.484;11.476;2022-11-15T04:56:24;15.63;;;8.55;;
49488;SDS011;35382;51.484;11.476;2022-11-15T04:58:24;16.33;;;8.32;;
49488;SDS011;35382;51.484;11.476;2022-11-15T05:00:23;15.57;;;8.30;;
49488;SDS011;35382;51.484;11.476;2022-11-15T05:02:23;13.68;;;8.05;;
49488;SDS011;35382;51.484;11.476;2022-11-15T05:04:23;16.42;;;8.75;;
49488;SDS011;35382;51.484;11.476;2022-11-15T05:06:22;12.98;;;7.47;;
49488;SDS011;35382;51.484;11.476;2022-11-15T05:08:22;15.88;;;9.30;;
49488;SDS011;35382;51.484;11.476;2022-11-15T05:10:22;14.82;;;9.00;;
49488;SDS011;35382;51.484;11.476;2022-11-15T05:12:21;17.83;;;8.90;;
49488;SDS011;35382;51.484;11.476;2022-11-15T05:14:21;15.15;;;8.43;;
49488;SDS011;35382;51.484;11.476;2022-11-15T05:16:21;19.52;;;9.52;;
49488;SDS011;35382;51.484;11.476;2022-11-15T05:18:20;16.40;;;9.00;;
49488;SDS011;35382;51.484;11.476;2022-11-15T05:20:20;16.33;;;9.15;;
49488;SDS011;35382;51.484;11.476;2022-11-15T05:22:20;13.27;;;8.07;;
49488;SDS011;35382;51.484;11.476;2022-11-15T05:24:19;14.88;;;8.75;;
49488;SDS011;35382;51.484;11.476;2022-11-15T05:26:19;16.50;;;8.48;;
49488;SDS011;35382;51.484;11.476;2022-11-15T05:28:19;15.93;;;8.50;;
49488;SDS011;35382;51.484;11.476;2022-11-15T05:30:18;14.30;;;7.65;;
49488;SDS011;35382;51.484;11.476;2022-11-15T05:32:18;14.98;;;8.43;;
49488;SDS011;35382;51.484;11.476;2022-11-15T05:34:18;13.27;;;7.55;;
49488;SDS011;35382;51.484;11.476;2022-11-15T05:36:37;12.32;;;7.80;;
49488;SDS011;35382;51.484;11.476;2022-11-15T05:38:40;14.23;;;7.90;;
49488;SDS011;35382;51.484;11.476;2022-11-15T05:40:39;13.18;;;8.13;;
49488;SDS011;35382;51.484;11.476;2022-11-15T05:42:39;13.95;;;7.60;;
49488;SDS011;35382;51.484;11.476;2022-11-15T05:44:39;13.50;;;8.02;;
49488;SDS011;35382;51.484;11.476;2022-11-15T05:46:42;12.13;;;7.05;;
49488;SDS011;35382;51.484;11.476;2022-11-15T05:48:43;13.32;;;7.22;;
49488;SDS011;35382;51.484;11.476;2022-11-15T05:50:46;13.48;;;7.32;;
49488;SDS011;35382;51.484;11.476;2022-11-15T05:52:47;12.70;;;7.80;;
49488;SDS011;35382;51.484;11.476;2022-11-15T05:54:46;11.00;;;6.80;;
49488;SDS011;35382;51.484;11.476;2022-11-15T05:56:46;13.35;;;7.90;;
49488;SDS011;35382;51.484;11.476;2022-11-15T05:58:46;13.18;;;7.35;;
49488;SDS011;35382;51.484;11.476;2022-11-15T06:00:46;12.77;;;7.13;;
49488;SDS011;35382;51.484;11.476;2022-11-15T06:02:45;12.52;;;7.80;;
49488;SDS011;35382;51.484;11.476;2022-11-15T06:04:45;15.50;;;7.10;;
49488;SDS011;35382;51.484;11.476;2022-11-15T06:06:45;11.65;;;7.15;;
49488;SDS011;35382;51.484;11.476;2022-11-15T06:08:44;11.43;;;6.90;;
49488;SDS011;35382;51.484;11.476;2022-11-15T06:10:44;12.75;;;7.88;;
49488;SDS011;35382;51.484;11.476;2022-11-15T06:12:43;12.43;;;7.50;;
49488;SDS011;35382;51.484;11.476;2022-11-15T06:14:43;11.20;;;7.28;;
49488;SDS011;35382;51.484;11.476;2022-11-15T06:16:43;12.95;;;7.35;;
49488;SDS011;35382;51.484;11.476;2022-11-15T06:18:42;13.73;;;7.68;;
49488;SDS011;35382;51.484;11.476;2022-11-15T06:20:42;16.00;;;8.32;;
49488;SDS011;35382;51.484;11.476;2022-11-15T06:22:42;12.02;;;7.30;;
49488;SDS011;35382;51.484;11.476;2022-11-15T06:24:41;11.73;;;6.95;;
49488;SDS011;35382;51.484;11.476;2022-11-15T06:26:42;13.65;;;7.82;;
49488;SDS011;35382;51.484;11.476;2022-11-15T06:28:42;13.35;;;8.05;;
49488;SDS011;35382;51.484;11.476;2022-11-15T06:30:42;12.55;;;7.75;;
49488;SDS011;35382;51.484;11.476;2022-11-15T06:32:41;12.15;;;7.00;;
49488;SDS011;35382;51.484;11.476;2022-11-15T06:34:41;13.75;;;8.20;;
49488;SDS011;35382;51.484;11.476;2022-11-15T06:36:40;15.05;;;7.95;;
49488;SDS011;35382;51.484;11.476;2022-11-15T06:38:40;14.40;;;8.57;;
49488;SDS011;35382;51.484;11.476;2022-11-15T06:40:40;14.95;;;8.38;;
49488;SDS011;35382;51.484;11.476;2022-11-15T06:42:39;15.98;;;9.00;;
49488;SDS011;35382;51.484;11.476;2022-11-15T06:44:39;14.38;;;8.30;;
49488;SDS011;35382;51.484;11.476;2022-11-15T06:46:39;14.38;;;8.18;;
49488;SDS011;35382;51.484;11.476;2022-11-15T06:48:38;14.52;;;7.63;;
49488;SDS011;35382;51.484;11.476;2022-11-15T06:50:38;11.73;;;7.00;;
49488;SDS011;35382;51.484;11.476;2022-11-15T06:52:38;11.27;;;7.07;;
49488;SDS011;35382;51.484;11.476;2022-11-15T06:54:37;11.43;;;6.63;;
49488;SDS011;35382;51.484;11.476;2022-11-15T06:56:37;12.30;;;7.05;;
49488;SDS011;35382;51.484;11.476;2022-11-15T06:58:37;10.95;;;6.80;;
49488;SDS011;35382;51.484;11.476;2022-11-15T07:00:36;13.10;;;7.13;;
49488;SDS011;35382;51.484;11.476;2022-11-15T07:02:36;10.75;;;6.93;;
49488;SDS011;35382;51.484;11.476;2022-11-15T07:04:36;12.40;;;6.78;;
49488;SDS011;35382;51.484;11.476;2022-11-15T07:06:35;11.05;;;7.03;;
49488;SDS011;35382;51.484;11.476;2022-11-15T07:08:35;12.98;;;6.85;;
49488;SDS011;35382;51.484;11.476;2022-11-15T07:10:35;12.23;;;7.50;;
49488;SDS011;35382;51.484;11.476;2022-11-15T07:12:35;15.48;;;8.20;;
49488;SDS011;35382;51.484;11.476;2022-11-15T07:14:34;15.98;;;8.32;;
49488;SDS011;35382;51.484;11.476;2022-11-15T07:16:35;14.45;;;8.85;;
49488;SDS011;35382;51.484;11.476;2022-11-15T07:18:36;16.00;;;8.77;;
49488;SDS011;35382;51.484;11.476;2022-11-15T07:20:36;14.68;;;8.23;;
49488;SDS011;35382;51.484;11.476;2022-11-15T07:22:36;15.73;;;9.13;;
49488;SDS011;35382;51.484;11.476;2022-11-15T07:24:36;15.80;;;9.02;;
49488;SDS011;35382;51.484;11.476;2022-11-15T07:26:35;18.70;;;9.38;;
49488;SDS011;35382;51.484;11.476;2022-11-15T07:28:35;11.40;;;7.78;;
49488;SDS011;35382;51.484;11.476;2022-11-15T07:30:34;12.85;;;7.40;;
49488;SDS011;35382;51.484;11.476;2022-11-15T07:32:34;13.98;;;8.40;;
49488;SDS011;35382;51.484;11.476;2022-11-15T07:34:33;13.50;;;8.05;;
49488;SDS011;35382;51.484;11.476;2022-11-15T07:36:33;14.68;;;8.10;;
49488;SDS011;35382;51.484;11.476;2022-11-15T07:38:33;14.57;;;8.48;;
49488;SDS011;35382;51.484;11.476;2022-11-15T07:40:34;12.93;;;7.70;;
49488;SDS011;35382;51.484;11.476;2022-11-15T07:42:33;15.55;;;7.70;;
49488;SDS011;35382;51.484;11.476;2022-11-15T07:44:51;14.02;;;6.95;;
49488;SDS011;35382;51.484;11.476;2022-11-15T07:46:51;11.93;;;7.30;;
49488;SDS011;35382;51.484;11.476;2022-11-15T07:48:51;14.80;;;7.85;;
49488;SDS011;35382;51.484;11.476;2022-11-15T07:50:51;12.48;;;8.18;;
49488;SDS011;35382;51.484;11.476;2022-11-15T07:52:54;14.45;;;8.63;;
49488;SDS011;35382;51.484;11.476;2022-11-15T07:54:54;13.10;;;8.00;;
49488;SDS011;35382;51.484;11.476;2022-11-15T07:56:54;14.55;;;8.52;;
49488;SDS011;35382;51.484;11.476;2022-11-15T07:58:54;17.38;;;9.30;;
49488;SDS011;35382;51.484;11.476;2022-11-15T08:00:54;13.27;;;7.97;;
49488;SDS011;35382;51.484;11.476;2022-11-15T08:03:00;15.43;;;8.70;;
49488;SDS011;35382;51.484;11.476;2022-11-15T08:05:04;13.05;;;8.20;;
49488;SDS011;35382;51.484;11.476;2022-11-15T08:07:04;15.70;;;7.40;;
49488;SDS011;35382;51.484;11.476;2022-11-15T08:09:03;13.00;;;7.78;;
49488;SDS011;35382;51.484;11.476;2022-11-15T08:11:03;18.63;;;8.63;;
49488;SDS011;35382;51.484;11.476;2022-11-15T08:13:06;13.80;;;9.02;;
49488;SDS011;35382;51.484;11.476;2022-11-15T08:15:07;15.35;;;8.68;;
49488;SDS011;35382;51.484;11.476;2022-11-15T08:17:07;14.10;;;8.57;;
49488;SDS011;35382;51.484;11.476;2022-11-15T08:19:06;12.10;;;7.72;;
49488;SDS011;35382;51.484;11.476;2022-11-15T08:21:06;13.55;;;8.43;;
49488;SDS011;35382;51.484;11.476;2022-11-15T08:23:05;14.25;;;9.05;;
49488;SDS011;35382;51.484;11.476;2022-11-15T08:25:06;13.30;;;8.55;;
49488;SDS011;35382;51.484;11.476;2022-11-15T08:27:05;12.32;;;7.88;;
49488;SDS011;35382;51.484;11.476;2022-11-15T08:29:13;12.13;;;6.40;;
49488;SDS011;35382;51.484;11.476;2022-11-15T08:31:14;13.02;;;8.43;;
49488;SDS011;35382;51.484;11.476;2022-11-15T08:33:16;12.45;;;7.20;;
49488;SDS011;35382;51.484;11.476;2022-11-15T08:35:16;12.02;;;6.70;;
49488;SDS011;35382;51.484;11.476;2022-11-15T08:37:16;11.02;;;7.55;;
49488;SDS011;35382;51.484;11.476;2022-11-15T08:39:15;12.32;;;8.02;;
49488;SDS011;35382;51.484;11.476;2022-11-15T08:43:31;12.50;;;8.60;;
49488;SDS011;35382;51.484;11.476;2022-11-15T08:45:30;13.23;;;8.23;;
49488;SDS011;35382;51.484;11.476;2022-11-15T08:47:32;14.90;;;10.75;;
49488;SDS011;35382;51.484;11.476;2022-11-15T08:49:32;16.75;;;12.25;;
49488;SDS011;35382;51.484;11.476;2022-11-15T08:51:31;19.55;;;14.93;;
49488;SDS011;35382;51.484;11.476;2022-11-15T08:53:31;20.13;;;14.05;;
49488;SDS011;35382;51.484;11.476;2022-11-15T08:55:31;24.38;;;17.33;;
49488;SDS011;35382;51.484;11.476;2022-11-15T08:57:31;23.15;;;17.05;;
49488;SDS011;35382;51.484;11.476;2022-11-15T08:59:30;17.95;;;12.55;;
49488;SDS011;35382;51.484;11.476;2022-11-15T09:01:30;17.70;;;11.73;;
49488;SDS011;35382;51.484;11.476;2022-11-15T09:03:30;16.80;;;11.05;;
49488;SDS011;35382;51.484;11.476;2022-11-15T09:05:30;14.80;;;10.95;;
49488;SDS011;35382;51.484;11.476;2022-11-15T09:07:29;15.13;;;10.18;;
49488;SDS011;35382;51.484;11.476;2022-11-15T09:09:29;15.85;;;9.50;;
49488;SDS011;35382;51.484;11.476;2022-11-15T09:11:29;12.95;;;8.98;;
49488;SDS011;35382;51.484;11.476;2022-11-15T09:13:28;14.00;;;9.70;;
49488;SDS011;35382;51.484;11.476;2022-11-15T09:15:28;13.73;;;9.18;;
49488;SDS011;35382;51.484;11.476;2022-11-15T09:17:28;12.80;;;8.45;;
49488;SDS011;35382;51.484;11.476;2022-11-15T09:19:28;11.82;;;8.05;;
49488;SDS011;35382;51.484;11.476;2022-11-15T09:21:28;12.73;;;7.45;;
49488;SDS011;35382;51.484;11.476;2022-11-15T09:23:29;10.13;;;7.75;;
49488;SDS011;35382;51.484;11.476;2022-11-15T09:25:28;12.30;;;7.43;;
49488;SDS011;35382;51.484;11.476;2022-11-15T09:27:30;10.60;;;7.38;;
49488;SDS011;35382;51.484;11.476;2022-11-15T09:29:30;11.48;;;7.40;;
49488;SDS011;35382;51.484;11.476;2022-11-15T09:31:29;9.30;;;6.65;;
49488;SDS011;35382;51.484;11.476;2022-11-15T09:33:29;11.55;;;7.45;;
49488;SDS011;35382;51.484;11.476;2022-11-15T09:35:29;11.43;;;7.18;;
49488;SDS011;35382;51.484;11.476;2022-11-15T09:37:28;9.63;;;6.70;;
49488;SDS011;35382;51.484;11.476;2022-11-15T09:39:31;10.05;;;5.63;;
49488;SDS011;35382;51.484;11.476;2022-11-15T09:48:09;10.35;;;4.20;;
49488;SDS011;35382;51.484;11.476;2022-11-15T09:50:36;8.60;;;4.63;;
49488;SDS011;35382;51.484;11.476;2022-11-15T09:52:24;7.55;;;4.60;;
49488;SDS011;35382;51.484;11.476;2022-11-15T09:56:01;6.75;;;4.25;;
49488;SDS011;35382;51.484;11.476;2022-11-15T09:57:45;5.30;;;3.38;;
49488;SDS011;35382;51.484;11.476;2022-11-15T10:01:39;5.93;;;3.42;;
49488;SDS011;35382;51.484;11.476;2022-11-15T10:03:38;7.80;;;4.05;;
49488;SDS011;35382;51.484;11.476;2022-11-15T10:05:22;6.28;;;4.03;;
49488;SDS011;35382;51.484;11.476;2022-11-15T10:10:46;6.47;;;3.83;;
49488;SDS011;35382;51.484;11.476;2022-11-15T10:12:29;6.43;;;3.83;;
49488;SDS011;35382;51.484;11.476;2022-11-15T10:14:13;7.15;;;3.58;;
49488;SDS011;35382;51.484;11.476;2022-11-15T10:18:27;6.65;;;4.10;;
49488;SDS011;35382;51.484;11.476;2022-11-15T10:20:48;6.90;;;3.95;;
49488;SDS011;35382;51.484;11.476;2022-11-15T10:22:35;6.47;;;3.97;;
49488;SDS011;35382;51.484;11.476;2022-11-15T10:24:30;7.10;;;3.78;;
49488;SDS011;35382;51.484;11.476;2022-11-15T10:26:16;6.53;;;3.85;;
49488;SDS011;35382;51.484;11.476;2022-11-15T10:28:17;7.60;;;4.47;;
49488;SDS011;35382;51.484;11.476;2022-11-15T10:30:12;7.82;;;3.90;;
49488;SDS011;35382;51.484;11.476;2022-11-15T10:31:56;5.97;;;3.60;;
49488;SDS011;35382;51.484;11.476;2022-11-15T10:33:38;7.00;;;3.88;;
49488;SDS011;35382;51.484;11.476;2022-11-15T10:35:26;6.88;;;3.75;;
49488;SDS011;35382;51.484;11.476;2022-11-15T10:37:08;7.57;;;4.63;;
49488;SDS011;35382;51.484;11.476;2022-11-15T10:40:30;8.50;;;4.35;;
49488;SDS011;35382;51.484;11.476;2022-11-15T10:42:16;9.00;;;4.25;;
49488;SDS011;35382;51.484;11.476;2022-11-15T10:45:57;8.57;;;4.10;;
49488;SDS011;35382;51.484;11.476;2022-11-15T10:50:02;6.32;;;4.20;;
49488;SDS011;35382;51.484;11.476;2022-11-15T10:51:54;6.03;;;4.10;;
49488;SDS011;35382;51.484;11.476;2022-11-15T10:53:38;7.43;;;4.05;;
49488;SDS011;35382;51.484;11.476;2022-11-15T10:55:27;6.32;;;3.90;;
49488;SDS011;35382;51.484;11.476;2022-11-15T10:57:14;7.15;;;4.45;;
49488;SDS011;35382;51.484;11.476;2022-11-15T10:59:00;7.28;;;4.68;;
49488;SDS011;35382;51.484;11.476;2022-11-15T11:00:41;7.70;;;5.32;;
49488;SDS011;35382;51.484;11.476;2022-11-15T11:02:36;8.90;;;4.18;;
49488;SDS011;35382;51.484;11.476;2022-11-15T11:04:18;6.63;;;4.13;;
49488;SDS011;35382;51.484;11.476;2022-11-15T11:06:04;9.88;;;4.80;;
49488;SDS011;35382;51.484;11.476;2022-11-15T11:07:46;8.25;;;5.05;;
49488;SDS011;35382;51.484;11.476;2022-11-15T11:09:40;8.88;;;4.47;;
49488;SDS011;35382;51.484;11.476;2022-11-15T11:11:24;10.07;;;4.82;;
49488;SDS011;35382;51.484;11.476;2022-11-15T11:13:13;9.40;;;5.47;;
49488;SDS011;35382;51.484;11.476;2022-11-15T11:15:09;11.07;;;4.75;;
49488;SDS011;35382;51.484;11.476;2022-11-15T11:16:53;9.07;;;4.80;;
49488;SDS011;35382;51.484;11.476;2022-11-15T11:20:59;12.07;;;5.03;;
49488;SDS011;35382;51.484;11.476;2022-11-15T11:26:46;7.18;;;4.78;;
49488;SDS011;35382;51.484;11.476;2022-11-15T11:36:59;6.93;;;4.22;;
49488;SDS011;35382;51.484;11.476;2022-11-15T11:42:39;7.53;;;4.10;;
49488;SDS011;35382;51.484;11.476;2022-11-15T11:50:15;7.70;;;4.18;;
49488;SDS011;35382;51.484;11.476;2022-11-15T11:54:00;7.57;;;4.50;;
49488;SDS011;35382;51.484;11.476;2022-11-15T11:55:47;8.10;;;4.57;;
49488;SDS011;35382;51.484;11.476;2022-11-15T11:57:37;8.23;;;4.40;;
49488;SDS011;35382;51.484;11.476;2022-11-15T11:59:36;6.55;;;4.57;;
49488;SDS011;35382;51.484;11.476;2022-11-15T12:03:14;8.20;;;4.90;;
49488;SDS011;35382;51.484;11.476;2022-11-15T12:05:13;6.55;;;4.95;;
49488;SDS011;35382;51.484;11.476;2022-11-15T12:06:57;7.80;;;4.47;;
49488;SDS011;35382;51.484;11.476;2022-11-15T12:08:43;7.22;;;4.50;;
49488;SDS011;35382;51.484;11.476;2022-11-15T12:10:32;7.30;;;4.70;;
49488;SDS011;35382;51.484;11.476;2022-11-15T12:12:17;10.60;;;6.43;;
49488;SDS011;35382;51.484;11.476;2022-11-15T12:14:05;7.10;;;5.00;;
49488;SDS011;35382;51.484;11.476;2022-11-15T12:15:57;10.00;;;6.97;;
49488;SDS011;35382;51.484;11.476;2022-11-15T12:17:58;7.78;;;4.93;;
49488;SDS011;35382;51.484;11.476;2022-11-15T12:19:41;7.25;;;4.70;;
49488;SDS011;35382;51.484;11.476;2022-11-15T12:23:14;9.05;;;5.35;;
49488;SDS011;35382;51.484;11.476;2022-11-15T12:25:44;10.30;;;5.85;;
49488;SDS011;35382;51.484;11.476;2022-11-15T12:29:23;7.75;;;4.32;;
49488;SDS011;35382;51.484;11.476;2022-11-15T12:35:24;8.18;;;3.92;;
49488;SDS011;35382;51.484;11.476;2022-11-15T12:38:08;9.10;;;4.55;;
49488;SDS011;35382;51.484;11.476;2022-11-15T12:39:19;6.72;;;4.25;;
49488;SDS011;35382;51.484;11.476;2022-11-15T12:41:23;8.10;;;4.53;;
49488;SDS011;35382;51.484;11.476;2022-11-15T12:45:23;8.05;;;4.47;;
49488;SDS011;35382;51.484;11.476;2022-11-15T12:47:21;6.60;;;3.85;;
49488;SDS011;35382;51.484;11.476;2022-11-15T12:49:47;5.88;;;3.22;;
49488;SDS011;35382;51.484;11.476;2022-11-15T12:51:08;6.93;;;3.95;;
49488;SDS011;35382;51.484;11.476;2022-11-15T12:55:28;7.85;;;5.07;;
49488;SDS011;35382;51.484;11.476;2022-11-15T12:59:00;6.05;;;3.95;;
49488;SDS011;35382;51.484;11.476;2022-11-15T13:00:45;7.35;;;3.60;;
49488;SDS011;35382;51.484;11.476;2022-11-15T13:02:43;6.53;;;3.60;;
49488;SDS011;35382;51.484;11.476;2022-11-15T13:04:26;7.15;;;3.72;;
49488;SDS011;35382;51.484;11.476;2022-11-15T13:06:08;6.00;;;3.88;;
49488;SDS011;35382;51.484;11.476;2022-11-15T13:08:10;7.38;;;3.55;;
49488;SDS011;35382;51.484;11.476;2022-11-15T13:12:09;5.55;;;3.53;;